sensor_id;sensor_type;location;lat;lon;timestamp;pressure;altitude;pressure_sealevel;temperature;humidity
48976;BME280;34791;52.752;8.346;2022-12-18T00:01:38;144980.38;;;-9.82;100.00
48976;BME280;34791;52.752;8.346;2022-12-18T00:04:05;144967.69;;;-9.87;100.00
48976;BME280;34791;52.752;8.346;2022-12-18T00:06:32;144948.63;;;-9.95;100.00
48976;BME280;34791;52.752;8.346;2022-12-18T00:08:58;144928.34;;;-10.03;100.00
48976;BME280;34791;52.752;8.346;2022-12-18T00:11:27;144921.94;;;-10.06;100.00
48976;BME280;34791;52.752;8.346;2022-12-18T00:13:55;144928.34;;;-10.03;100.00
48976;BME280;34791;52.752;8.346;2022-12-18T00:16:22;144947.34;;;-9.95;100.00
48976;BME280;34791;52.752;8.346;2022-12-18T00:18:50;144956.28;;;-9.92;100.00
48976;BME280;34791;52.752;8.346;2022-12-18T00:21:16;144952.44;;;-9.93;100.00
48976;BME280;34791;52.752;8.346;2022-12-18T00:23:43;144953.75;;;-9.93;100.00
48976;BME280;34791;52.752;8.346;2022-12-18T00:26:17;144960.09;;;-9.90;100.00
48976;BME280;34791;52.752;8.346;2022-12-18T00:28:43;144988.03;;;-9.79;100.00
48976;BME280;34791;52.752;8.346;2022-12-18T00:31:15;145013.47;;;-9.69;100.00
48976;BME280;34791;52.752;8.346;2022-12-18T00:33:41;145052.84;;;-9.53;100.00
48976;BME280;34791;52.752;8.346;2022-12-18T00:36:11;145059.19;;;-9.51;100.00
48976;BME280;34791;52.752;8.346;2022-12-18T00:38:37;145054.13;;;-9.53;100.00
48976;BME280;34791;52.752;8.346;2022-12-18T00:41:03;145036.31;;;-9.60;100.00
48976;BME280;34791;52.752;8.346;2022-12-18T00:43:28;145033.78;;;-9.61;100.00
48976;BME280;34791;52.752;8.346;2022-12-18T00:45:54;145046.50;;;-9.56;100.00
48976;BME280;34791;52.752;8.346;2022-12-18T00:48:19;145056.66;;;-9.52;100.00
48976;BME280;34791;52.752;8.346;2022-12-18T00:50:44;145050.31;;;-9.54;100.00
48976;BME280;34791;52.752;8.346;2022-12-18T00:53:10;145066.81;;;-9.48;100.00
48976;BME280;34791;52.752;8.346;2022-12-18T00:55:40;145046.50;;;-9.56;100.00
48976;BME280;34791;52.752;8.346;2022-12-18T00:58:05;145077.00;;;-9.43;100.00
48976;BME280;34791;52.752;8.346;2022-12-18T01:00:30;145061.72;;;-9.50;100.00
48976;BME280;34791;52.752;8.346;2022-12-18T01:02:56;145052.84;;;-9.53;100.00
48976;BME280;34791;52.752;8.346;2022-12-18T01:05:21;145057.91;;;-9.51;100.00
48976;BME280;34791;52.752;8.346;2022-12-18T01:07:47;145036.31;;;-9.60;100.00
48976;BME280;34791;52.752;8.346;2022-12-18T01:10:12;145018.53;;;-9.67;100.00
48976;BME280;34791;52.752;8.346;2022-12-18T01:12:38;145026.16;;;-9.64;100.00
48976;BME280;34791;52.752;8.346;2022-12-18T01:15:06;145003.28;;;-9.73;100.00
48976;BME280;34791;52.752;8.346;2022-12-18T01:17:32;145003.28;;;-9.73;100.00
48976;BME280;34791;52.752;8.346;2022-12-18T01:19:57;145000.72;;;-9.74;100.00
48976;BME280;34791;52.752;8.346;2022-12-18T01:22:23;144952.44;;;-9.93;100.00
48976;BME280;34791;52.752;8.346;2022-12-18T01:24:48;144929.59;;;-10.02;100.00
48976;BME280;34791;52.752;8.346;2022-12-18T01:27:14;144944.81;;;-9.96;100.00
48976;BME280;34791;52.752;8.346;2022-12-18T01:29:39;144967.69;;;-9.87;100.00
48976;BME280;34791;52.752;8.346;2022-12-18T01:32:04;144990.59;;;-9.78;100.00
48976;BME280;34791;52.752;8.346;2022-12-18T01:34:30;144996.94;;;-9.76;100.00
48976;BME280;34791;52.752;8.346;2022-12-18T01:36:55;144985.50;;;-9.80;100.00
48976;BME280;34791;52.752;8.346;2022-12-18T01:39:21;144955.00;;;-9.92;100.00
48976;BME280;34791;52.752;8.346;2022-12-18T01:41:46;144947.34;;;-9.95;100.00
48976;BME280;34791;52.752;8.346;2022-12-18T01:50:16;145000.72;;;-9.74;100.00
48976;BME280;34791;52.752;8.346;2022-12-18T01:52:45;145054.13;;;-9.53;100.00
48976;BME280;34791;52.752;8.346;2022-12-18T01:55:13;145089.69;;;-9.38;100.00
48976;BME280;34791;52.752;8.346;2022-12-18T01:57:40;145106.25;;;-9.32;100.00
48976;BME280;34791;52.752;8.346;2022-12-18T02:00:10;145120.19;;;-9.26;100.00
48976;BME280;34791;52.752;8.346;2022-12-18T02:02:36;145127.81;;;-9.23;100.00
48976;BME280;34791;52.752;8.346;2022-12-18T02:05:03;145130.34;;;-9.22;100.00
48976;BME280;34791;52.752;8.346;2022-12-18T02:10:31;145146.91;;;-9.16;100.00
48976;BME280;34791;52.752;8.346;2022-12-18T02:13:07;145155.78;;;-9.12;100.00
48976;BME280;34791;52.752;8.346;2022-12-18T02:16:07;145167.25;;;-9.07;100.00
48976;BME280;34791;52.752;8.346;2022-12-18T02:18:41;145158.34;;;-9.11;100.00
48976;BME280;34791;52.752;8.346;2022-12-18T02:24:28;145127.81;;;-9.23;100.00
48976;BME280;34791;52.752;8.346;2022-12-18T02:26:59;145111.31;;;-9.30;100.00
48976;BME280;34791;52.752;8.346;2022-12-18T02:29:33;145102.38;;;-9.33;100.00
48976;BME280;34791;52.752;8.346;2022-12-18T02:32:02;145111.31;;;-9.30;100.00
48976;BME280;34791;52.752;8.346;2022-12-18T02:34:32;145122.75;;;-9.25;100.00
48976;BME280;34791;52.752;8.346;2022-12-18T02:37:02;145143.09;;;-9.17;100.00
48976;BME280;34791;52.752;8.346;2022-12-18T02:39:30;145150.72;;;-9.14;100.00
48976;BME280;34791;52.752;8.346;2022-12-18T02:41:58;145177.41;;;-9.03;100.00
48976;BME280;34791;52.752;8.346;2022-12-18T02:44:24;145216.84;;;-8.88;100.00
48976;BME280;34791;52.752;8.346;2022-12-18T02:46:51;145221.91;;;-8.86;100.00
48976;BME280;34791;52.752;8.346;2022-12-18T02:49:40;145199.06;;;-8.95;100.00
48976;BME280;34791;52.752;8.346;2022-12-18T02:55:16;145172.34;;;-9.05;100.00
48976;BME280;34791;52.752;8.346;2022-12-18T02:57:56;145176.16;;;-9.04;100.00
48976;BME280;34791;52.752;8.346;2022-12-18T03:00:28;145227.03;;;-8.83;100.00
48976;BME280;34791;52.752;8.346;2022-12-18T03:03:16;145172.34;;;-9.05;100.00
48976;BME280;34791;52.752;8.346;2022-12-18T03:05:50;145138.03;;;-9.19;100.00
48976;BME280;34791;52.752;8.346;2022-12-18T03:08:20;145084.63;;;-9.40;100.00
48976;BME280;34791;52.752;8.346;2022-12-18T03:11:08;145122.75;;;-9.25;100.00
48976;BME280;34791;52.752;8.346;2022-12-18T03:13:47;145168.53;;;-9.07;100.00
48976;BME280;34791;52.752;8.346;2022-12-18T03:16:25;145190.13;;;-8.98;100.00
48976;BME280;34791;52.752;8.346;2022-12-18T03:18:56;145214.28;;;-8.89;100.00
48976;BME280;34791;52.752;8.346;2022-12-18T03:21:28;145224.44;;;-8.84;100.00
48976;BME280;34791;52.752;8.346;2022-12-18T03:23:55;145232.13;;;-8.81;100.00
48976;BME280;34791;52.752;8.346;2022-12-18T03:26:24;145220.63;;;-8.86;100.00
48976;BME280;34791;52.752;8.346;2022-12-18T03:28:53;145196.50;;;-8.96;100.00
48976;BME280;34791;52.752;8.346;2022-12-18T03:31:23;145172.34;;;-9.05;100.00
48976;BME280;34791;52.752;8.346;2022-12-18T03:33:54;145141.84;;;-9.18;100.00
48976;BME280;34791;52.752;8.346;2022-12-18T03:36:19;145122.75;;;-9.25;100.00
48976;BME280;34791;52.752;8.346;2022-12-18T03:38:45;145155.78;;;-9.12;100.00
48976;BME280;34791;52.752;8.346;2022-12-18T03:46:46;145210.47;;;-8.90;100.00
48976;BME280;34791;52.752;8.346;2022-12-18T03:49:25;145179.97;;;-9.02;100.00
48976;BME280;34791;52.752;8.346;2022-12-18T03:52:04;145163.41;;;-9.09;100.00
48976;BME280;34791;52.752;8.346;2022-12-18T03:54:32;145153.25;;;-9.13;100.00
48976;BME280;34791;52.752;8.346;2022-12-18T03:57:14;145135.47;;;-9.20;100.00
48976;BME280;34791;52.752;8.346;2022-12-18T03:59:41;145134.16;;;-9.21;100.00
48976;BME280;34791;52.752;8.346;2022-12-18T04:02:08;145140.56;;;-9.18;100.00
48976;BME280;34791;52.752;8.346;2022-12-18T04:04:35;145155.78;;;-9.12;100.00
48976;BME280;34791;52.752;8.346;2022-12-18T04:07:03;145158.34;;;-9.11;100.00
48976;BME280;34791;52.752;8.346;2022-12-18T04:09:30;145145.63;;;-9.16;100.00
48976;BME280;34791;52.752;8.346;2022-12-18T04:11:57;145139.28;;;-9.19;100.00
48976;BME280;34791;52.752;8.346;2022-12-18T04:14:22;145143.09;;;-9.17;100.00
48976;BME280;34791;52.752;8.346;2022-12-18T04:16:47;145164.72;;;-9.08;100.00
48976;BME280;34791;52.752;8.346;2022-12-18T04:19:13;145204.13;;;-8.93;100.00
48976;BME280;34791;52.752;8.346;2022-12-18T04:21:38;145224.44;;;-8.84;100.00
48976;BME280;34791;52.752;8.346;2022-12-18T04:24:04;145210.47;;;-8.90;100.00
48976;BME280;34791;52.752;8.346;2022-12-18T04:26:30;145199.06;;;-8.95;100.00
48976;BME280;34791;52.752;8.346;2022-12-18T04:28:55;145178.69;;;-9.03;100.00
48976;BME280;34791;52.752;8.346;2022-12-18T04:31:21;145152.00;;;-9.13;100.00
48976;BME280;34791;52.752;8.346;2022-12-18T04:33:46;145127.81;;;-9.23;100.00
48976;BME280;34791;52.752;8.346;2022-12-18T04:36:11;145132.91;;;-9.21;100.00
48976;BME280;34791;52.752;8.346;2022-12-18T04:38:37;145141.84;;;-9.18;100.00
48976;BME280;34791;52.752;8.346;2022-12-18T04:41:03;145139.28;;;-9.19;100.00
48976;BME280;34791;52.752;8.346;2022-12-18T04:43:28;145129.09;;;-9.23;100.00
48976;BME280;34791;52.752;8.346;2022-12-18T04:46:04;145152.00;;;-9.13;100.00
48976;BME280;34791;52.752;8.346;2022-12-18T04:48:30;145174.88;;;-9.04;100.00
48976;BME280;34791;52.752;8.346;2022-12-18T04:50:56;145181.22;;;-9.02;100.00
48976;BME280;34791;52.752;8.346;2022-12-18T04:53:21;145178.69;;;-9.03;100.00
48976;BME280;34791;52.752;8.346;2022-12-18T04:55:46;145171.06;;;-9.06;100.00
48976;BME280;34791;52.752;8.346;2022-12-18T04:58:12;145195.25;;;-8.96;100.00
48976;BME280;34791;52.752;8.346;2022-12-18T05:00:37;145209.22;;;-8.91;100.00
48976;BME280;34791;52.752;8.346;2022-12-18T05:03:03;145232.13;;;-8.81;100.00
48976;BME280;34791;52.752;8.346;2022-12-18T05:05:28;145223.19;;;-8.85;100.00
48976;BME280;34791;52.752;8.346;2022-12-18T05:07:53;145214.28;;;-8.89;100.00
48976;BME280;34791;52.752;8.346;2022-12-18T05:10:19;145239.72;;;-8.78;100.00
48976;BME280;34791;52.752;8.346;2022-12-18T05:12:44;145238.47;;;-8.79;100.00
48976;BME280;34791;52.752;8.346;2022-12-18T05:15:29;145237.19;;;-8.79;100.00
48976;BME280;34791;52.752;8.346;2022-12-18T05:17:56;145249.91;;;-8.74;100.00
48976;BME280;34791;52.752;8.346;2022-12-18T05:20:22;145262.66;;;-8.69;100.00
48976;BME280;34791;52.752;8.346;2022-12-18T05:22:47;145270.25;;;-8.66;100.00
48976;BME280;34791;52.752;8.346;2022-12-18T05:25:13;145269.00;;;-8.67;100.00
48976;BME280;34791;52.752;8.346;2022-12-18T05:27:38;145261.38;;;-8.70;100.00
48976;BME280;34791;52.752;8.346;2022-12-18T05:30:04;145248.63;;;-8.75;100.00
48976;BME280;34791;52.752;8.346;2022-12-18T05:32:29;145229.59;;;-8.82;100.00
48976;BME280;34791;52.752;8.346;2022-12-18T05:34:54;145214.28;;;-8.89;100.00
48976;BME280;34791;52.752;8.346;2022-12-18T05:37:22;145214.28;;;-8.89;100.00
48976;BME280;34791;52.752;8.346;2022-12-18T05:39:47;145215.56;;;-8.88;100.00
48976;BME280;34791;52.752;8.346;2022-12-18T05:42:13;145227.03;;;-8.83;100.00
48976;BME280;34791;52.752;8.346;2022-12-18T05:44:38;145232.13;;;-8.81;100.00
48976;BME280;34791;52.752;8.346;2022-12-18T05:47:04;145232.13;;;-8.81;100.00
48976;BME280;34791;52.752;8.346;2022-12-18T05:49:29;145207.94;;;-8.91;100.00
48976;BME280;34791;52.752;8.346;2022-12-18T05:51:54;145178.69;;;-9.03;100.00
48976;BME280;34791;52.752;8.346;2022-12-18T05:54:20;145140.56;;;-9.18;100.00
48976;BME280;34791;52.752;8.346;2022-12-18T05:56:45;145148.19;;;-9.15;100.00
48976;BME280;34791;52.752;8.346;2022-12-18T05:59:10;145202.88;;;-8.93;100.00
48976;BME280;34791;52.752;8.346;2022-12-18T06:01:36;145232.13;;;-8.81;100.00
48976;BME280;34791;52.752;8.346;2022-12-18T06:04:01;145253.72;;;-8.73;100.00
48976;BME280;34791;52.752;8.346;2022-12-18T06:06:27;145266.44;;;-8.68;100.00
48976;BME280;34791;52.752;8.346;2022-12-18T06:08:53;145293.19;;;-8.57;100.00
48976;BME280;34791;52.752;8.346;2022-12-18T06:11:22;145314.75;;;-8.48;100.00
48976;BME280;34791;52.752;8.346;2022-12-18T06:13:53;145319.91;;;-8.46;100.00
48976;BME280;34791;52.752;8.346;2022-12-18T06:16:18;145324.97;;;-8.44;100.00
48976;BME280;34791;52.752;8.346;2022-12-18T06:18:44;145330.06;;;-8.42;100.00
48976;BME280;34791;52.752;8.346;2022-12-18T06:21:09;145338.94;;;-8.39;100.00
48976;BME280;34791;52.752;8.346;2022-12-18T06:23:34;145318.63;;;-8.47;100.00
48976;BME280;34791;52.752;8.346;2022-12-18T06:26:06;145314.75;;;-8.48;100.00
48976;BME280;34791;52.752;8.346;2022-12-18T06:28:31;145300.78;;;-8.54;100.00
48976;BME280;34791;52.752;8.346;2022-12-18T06:30:57;145293.19;;;-8.57;100.00
48976;BME280;34791;52.752;8.346;2022-12-18T06:33:26;145279.16;;;-8.63;100.00
48976;BME280;34791;52.752;8.346;2022-12-18T06:35:51;145263.91;;;-8.69;100.00
48976;BME280;34791;52.752;8.346;2022-12-18T06:38:17;145244.81;;;-8.76;100.00
48976;BME280;34791;52.752;8.346;2022-12-18T06:40:42;145239.72;;;-8.78;100.00
48976;BME280;34791;52.752;8.346;2022-12-18T06:43:08;145228.31;;;-8.83;100.00
48976;BME280;34791;52.752;8.346;2022-12-18T06:45:33;145224.44;;;-8.84;100.00
48976;BME280;34791;52.752;8.346;2022-12-18T06:47:59;145209.22;;;-8.91;100.00
48976;BME280;34791;52.752;8.346;2022-12-18T06:50:24;145221.91;;;-8.86;100.00
48976;BME280;34791;52.752;8.346;2022-12-18T06:52:50;145223.19;;;-8.85;100.00
48976;BME280;34791;52.752;8.346;2022-12-18T06:55:15;145247.34;;;-8.75;100.00
48976;BME280;34791;52.752;8.346;2022-12-18T06:57:41;145249.91;;;-8.74;100.00
48976;BME280;34791;52.752;8.346;2022-12-18T07:00:07;145262.66;;;-8.69;100.00
48976;BME280;34791;52.752;8.346;2022-12-18T07:02:33;145242.28;;;-8.77;100.00
48976;BME280;34791;52.752;8.346;2022-12-18T07:04:58;145201.59;;;-8.94;100.00
48976;BME280;34791;52.752;8.346;2022-12-18T07:07:24;145150.72;;;-9.14;100.00
48976;BME280;34791;52.752;8.346;2022-12-18T07:09:50;145138.03;;;-9.19;100.00
48976;BME280;34791;52.752;8.346;2022-12-18T07:12:16;145191.38;;;-8.98;100.00
48976;BME280;34791;52.752;8.346;2022-12-18T07:14:41;145221.91;;;-8.86;100.00
48976;BME280;34791;52.752;8.346;2022-12-18T07:17:07;145251.16;;;-8.74;100.00
48976;BME280;34791;52.752;8.346;2022-12-18T07:19:32;145252.44;;;-8.73;100.00
48976;BME280;34791;52.752;8.346;2022-12-18T07:21:58;145280.44;;;-8.62;100.00
48976;BME280;34791;52.752;8.346;2022-12-18T07:24:24;145295.72;;;-8.56;100.00
48976;BME280;34791;52.752;8.346;2022-12-18T07:26:49;145321.16;;;-8.46;100.00
48976;BME280;34791;52.752;8.346;2022-12-18T07:29:14;145341.50;;;-8.38;100.00
48976;BME280;34791;52.752;8.346;2022-12-18T07:31:40;145363.09;;;-8.29;100.00
48976;BME280;34791;52.752;8.346;2022-12-18T07:34:10;145382.19;;;-8.21;100.00
48976;BME280;34791;52.752;8.346;2022-12-18T07:36:35;145389.81;;;-8.18;100.00
48976;BME280;34791;52.752;8.346;2022-12-18T07:39:01;145391.09;;;-8.18;100.00
48976;BME280;34791;52.752;8.346;2022-12-18T07:41:26;145389.81;;;-8.18;100.00
48976;BME280;34791;52.752;8.346;2022-12-18T07:43:51;145399.97;;;-8.14;100.00
48976;BME280;34791;52.752;8.346;2022-12-18T07:46:17;145402.53;;;-8.13;100.00
48976;BME280;34791;52.752;8.346;2022-12-18T07:48:43;145407.66;;;-8.11;100.00
48976;BME280;34791;52.752;8.346;2022-12-18T07:51:09;145412.75;;;-8.09;100.00
48976;BME280;34791;52.752;8.346;2022-12-18T07:53:38;145428.00;;;-8.03;100.00
48976;BME280;34791;52.752;8.346;2022-12-18T07:56:06;145439.47;;;-7.99;100.00
48976;BME280;34791;52.752;8.346;2022-12-18T07:58:32;145445.84;;;-7.96;100.00
48976;BME280;34791;52.752;8.346;2022-12-18T08:03:29;145461.09;;;-7.90;100.00
48976;BME280;34791;52.752;8.346;2022-12-18T08:05:59;145489.09;;;-7.79;100.00
48976;BME280;34791;52.752;8.346;2022-12-18T08:08:24;145509.47;;;-7.71;100.00
48976;BME280;34791;52.752;8.346;2022-12-18T08:10:50;145532.41;;;-7.61;100.00
48976;BME280;34791;52.752;8.346;2022-12-18T08:13:15;145552.75;;;-7.53;100.00
48976;BME280;34791;52.752;8.346;2022-12-18T08:15:40;145596.09;;;-7.36;100.00
48976;BME280;34791;52.752;8.346;2022-12-18T08:18:06;145621.56;;;-7.26;100.00
48976;BME280;34791;52.752;8.346;2022-12-18T08:20:31;145715.84;;;-6.88;100.00
48976;BME280;34791;52.752;8.346;2022-12-18T08:22:56;145922.34;;;-6.06;100.00
48976;BME280;34791;52.752;8.346;2022-12-18T08:25:23;146044.81;;;-5.57;100.00
48976;BME280;34791;52.752;8.346;2022-12-18T08:27:48;146030.75;;;-5.63;100.00
48976;BME280;34791;52.752;8.346;2022-12-18T08:30:14;145986.13;;;-5.80;100.00
48976;BME280;34791;52.752;8.346;2022-12-18T08:32:39;145930.03;;;-6.03;100.00
48976;BME280;34791;52.752;8.346;2022-12-18T08:35:05;145944.03;;;-5.97;100.00
48976;BME280;34791;52.752;8.346;2022-12-18T08:37:30;146057.56;;;-5.52;100.00
48976;BME280;34791;52.752;8.346;2022-12-18T08:39:56;146136.72;;;-5.20;100.00
48976;BME280;34791;52.752;8.346;2022-12-18T08:42:21;146231.19;;;-4.83;100.00
48976;BME280;34791;52.752;8.346;2022-12-18T08:45:05;146360.19;;;-4.31;100.00
48976;BME280;34791;52.752;8.346;2022-12-18T08:47:31;146392.13;;;-4.19;100.00
48976;BME280;34791;52.752;8.346;2022-12-18T08:49:56;146371.66;;;-4.27;100.00
48976;BME280;34791;52.752;8.346;2022-12-18T08:52:21;146312.88;;;-4.50;100.00
48976;BME280;34791;52.752;8.346;2022-12-18T08:54:47;146300.13;;;-4.55;100.00
48976;BME280;34791;52.752;8.346;2022-12-18T08:57:12;146266.94;;;-4.68;100.00
48976;BME280;34791;52.752;8.346;2022-12-18T08:59:37;146220.94;;;-4.87;100.00
48976;BME280;34791;52.752;8.346;2022-12-18T09:02:03;146209.47;;;-4.91;100.00
48976;BME280;34791;52.752;8.346;2022-12-18T09:04:28;146198.00;;;-4.96;100.00
48976;BME280;34791;52.752;8.346;2022-12-18T09:06:55;146190.28;;;-4.99;100.00
48976;BME280;34791;52.752;8.346;2022-12-18T09:09:20;146203.09;;;-4.94;100.00
48976;BME280;34791;52.752;8.346;2022-12-18T09:11:46;146205.63;;;-4.93;100.00
48976;BME280;34791;52.752;8.346;2022-12-18T09:14:11;146212.00;;;-4.90;100.00
48976;BME280;34791;52.752;8.346;2022-12-18T09:16:37;146210.72;;;-4.91;100.00
48976;BME280;34791;52.752;8.346;2022-12-18T09:19:04;146203.09;;;-4.94;100.00
48976;BME280;34791;52.752;8.346;2022-12-18T09:21:32;146210.72;;;-4.91;100.00
48976;BME280;34791;52.752;8.346;2022-12-18T09:23:58;146220.94;;;-4.87;100.00
48976;BME280;34791;52.752;8.346;2022-12-18T09:26:25;146229.91;;;-4.83;100.00
48976;BME280;34791;52.752;8.346;2022-12-18T09:28:50;146237.56;;;-4.80;100.00
48976;BME280;34791;52.752;8.346;2022-12-18T09:31:18;146249.03;;;-4.76;100.00
48976;BME280;34791;52.752;8.346;2022-12-18T09:33:44;146272.03;;;-4.66;100.00
48976;BME280;34791;52.752;8.346;2022-12-18T09:36:11;146291.22;;;-4.59;100.00
48976;BME280;34791;52.752;8.346;2022-12-18T09:38:37;146316.72;;;-4.49;100.00
48976;BME280;34791;52.752;8.346;2022-12-18T09:41:39;146355.06;;;-4.33;100.00
48976;BME280;34791;52.752;8.346;2022-12-18T09:44:35;146381.91;;;-4.23;100.00
48976;BME280;34791;52.752;8.346;2022-12-18T09:49:35;146448.34;;;-3.96;100.00
48976;BME280;34791;52.752;8.346;2022-12-18T09:52:18;146456.00;;;-3.93;100.00
48976;BME280;34791;52.752;8.346;2022-12-18T09:54:53;146470.09;;;-3.88;100.00
48976;BME280;34791;52.752;8.346;2022-12-18T09:57:22;146473.94;;;-3.86;100.00
48976;BME280;34791;52.752;8.346;2022-12-18T09:59:57;146472.66;;;-3.87;100.00
48976;BME280;34791;52.752;8.346;2022-12-18T10:02:25;146494.34;;;-3.78;100.00
48976;BME280;34791;52.752;8.346;2022-12-18T10:05:04;146494.34;;;-3.78;100.00
48976;BME280;34791;52.752;8.346;2022-12-18T10:10:49;146564.69;;;-3.50;100.00
48976;BME280;34791;52.752;8.346;2022-12-18T10:13:47;146588.94;;;-3.40;100.00
48976;BME280;34791;52.752;8.346;2022-12-18T10:17:26;146601.75;;;-3.35;100.00
48976;BME280;34791;52.752;8.346;2022-12-18T10:19:39;146604.31;;;-3.34;100.00
48976;BME280;34791;52.752;8.346;2022-12-18T10:25:03;146642.69;;;-3.19;100.00
48976;BME280;34791;52.752;8.346;2022-12-18T10:27:31;146647.78;;;-3.17;100.00
48976;BME280;34791;52.752;8.346;2022-12-18T10:29:57;146683.63;;;-3.03;100.00
48976;BME280;34791;52.752;8.346;2022-12-18T10:32:25;146711.75;;;-2.91;100.00
48976;BME280;34791;52.752;8.346;2022-12-18T10:34:53;146701.53;;;-2.96;100.00
48976;BME280;34791;52.752;8.346;2022-12-18T10:37:22;146709.19;;;-2.92;100.00
48976;BME280;34791;52.752;8.346;2022-12-18T10:40:07;146716.91;;;-2.89;100.00
48976;BME280;34791;52.752;8.346;2022-12-18T10:42:33;146709.19;;;-2.92;100.00
48976;BME280;34791;52.752;8.346;2022-12-18T10:45:11;146691.31;;;-3.00;100.00
48976;BME280;34791;52.752;8.346;2022-12-18T10:47:43;146672.09;;;-3.07;100.00
48976;BME280;34791;52.752;8.346;2022-12-18T10:50:35;146664.44;;;-3.10;100.00
48976;BME280;34791;52.752;8.346;2022-12-18T10:53:03;146695.13;;;-2.98;100.00
48976;BME280;34791;52.752;8.346;2022-12-18T10:55:44;146700.25;;;-2.96;100.00
48976;BME280;34791;52.752;8.346;2022-12-18T10:58:27;146724.56;;;-2.86;100.00
48976;BME280;34791;52.752;8.346;2022-12-18T11:01:13;146734.78;;;-2.82;100.00
48976;BME280;34791;52.752;8.346;2022-12-18T11:03:44;146750.16;;;-2.76;100.00
48976;BME280;34791;52.752;8.346;2022-12-18T11:06:19;146768.03;;;-2.69;100.00
48976;BME280;34791;52.752;8.346;2022-12-18T11:09:20;146807.75;;;-2.53;100.00
48976;BME280;34791;52.752;8.346;2022-12-18T11:11:54;146824.38;;;-2.47;100.00
48976;BME280;34791;52.752;8.346;2022-12-18T11:14:35;146806.47;;;-2.54;100.00
48976;BME280;34791;52.752;8.346;2022-12-18T11:17:30;146819.25;;;-2.49;100.00
48976;BME280;34791;52.752;8.346;2022-12-18T11:19:58;146811.59;;;-2.52;100.00
48976;BME280;34791;52.752;8.346;2022-12-18T11:22:32;146796.19;;;-2.58;100.00
48976;BME280;34791;52.752;8.346;2022-12-18T11:27:25;146778.31;;;-2.65;100.00
48976;BME280;34791;52.752;8.346;2022-12-18T11:29:51;146791.09;;;-2.60;100.00
48976;BME280;34791;52.752;8.346;2022-12-18T11:38:00;146800.03;;;-2.56;100.00
48976;BME280;34791;52.752;8.346;2022-12-18T11:40:35;146810.31;;;-2.52;100.00
48976;BME280;34791;52.752;8.346;2022-12-18T11:43:18;146837.19;;;-2.42;100.00
48976;BME280;34791;52.752;8.346;2022-12-18T11:45:52;146860.19;;;-2.32;100.00
48976;BME280;34791;52.752;8.346;2022-12-18T11:48:27;146870.47;;;-2.28;100.00
48976;BME280;34791;52.752;8.346;2022-12-18T11:50:55;146875.59;;;-2.26;100.00
48976;BME280;34791;52.752;8.346;2022-12-18T11:53:22;146885.81;;;-2.22;100.00
48976;BME280;34791;52.752;8.346;2022-12-18T11:56:02;146887.09;;;-2.22;100.00
48976;BME280;34791;52.752;8.346;2022-12-18T12:09:43;146908.88;;;-2.13;100.00
48976;BME280;34791;52.752;8.346;2022-12-18T12:18:33;146937.03;;;-2.02;100.00
48976;BME280;34791;52.752;8.346;2022-12-18T12:27:18;146962.66;;;-1.92;100.00
48976;BME280;34791;52.752;8.346;2022-12-18T12:29:48;146953.66;;;-1.95;100.00
48976;BME280;34791;52.752;8.346;2022-12-18T12:32:53;146971.59;;;-1.88;100.00
48976;BME280;34791;52.752;8.346;2022-12-18T12:38:28;146988.28;;;-1.82;100.00
48976;BME280;34791;52.752;8.346;2022-12-18T12:41:01;147001.06;;;-1.77;100.00
48976;BME280;34791;52.752;8.346;2022-12-18T12:46:19;147008.75;;;-1.73;100.00
48976;BME280;34791;52.752;8.346;2022-12-18T12:48:52;147004.91;;;-1.75;100.00
48976;BME280;34791;52.752;8.346;2022-12-18T12:51:31;147016.41;;;-1.70;100.00
48976;BME280;34791;52.752;8.346;2022-12-18T12:53:59;147019.00;;;-1.69;100.00
48976;BME280;34791;52.752;8.346;2022-12-18T12:56:36;147021.56;;;-1.68;100.00
48976;BME280;34791;52.752;8.346;2022-12-18T12:59:21;147026.69;;;-1.66;100.00
48976;BME280;34791;52.752;8.346;2022-12-18T13:02:03;147034.38;;;-1.63;100.00
48976;BME280;34791;52.752;8.346;2022-12-18T13:04:52;147019.00;;;-1.69;100.00
48976;BME280;34791;52.752;8.346;2022-12-18T13:10:47;147019.00;;;-1.69;100.00
48976;BME280;34791;52.752;8.346;2022-12-18T13:13:14;147019.00;;;-1.69;100.00
48976;BME280;34791;52.752;8.346;2022-12-18T13:15:46;147021.56;;;-1.68;100.00
48976;BME280;34791;52.752;8.346;2022-12-18T13:18:20;147021.56;;;-1.68;100.00
48976;BME280;34791;52.752;8.346;2022-12-18T13:21:02;147019.00;;;-1.69;100.00
48976;BME280;34791;52.752;8.346;2022-12-18T13:23:36;147020.28;;;-1.69;100.00
48976;BME280;34791;52.752;8.346;2022-12-18T13:31:08;147025.41;;;-1.67;100.00
48976;BME280;34791;52.752;8.346;2022-12-18T13:36:11;147040.75;;;-1.61;100.00
48976;BME280;34791;52.752;8.346;2022-12-18T13:38:39;147039.47;;;-1.61;100.00
48976;BME280;34791;52.752;8.346;2022-12-18T13:43:37;147042.03;;;-1.60;100.00
48976;BME280;34791;52.752;8.346;2022-12-18T13:46:20;147044.59;;;-1.59;100.00
48976;BME280;34791;52.752;8.346;2022-12-18T13:48:52;147051.03;;;-1.57;100.00
48976;BME280;34791;52.752;8.346;2022-12-18T13:51:19;147044.59;;;-1.59;100.00
48976;BME280;34791;52.752;8.346;2022-12-18T13:53:51;147044.59;;;-1.59;100.00
48976;BME280;34791;52.752;8.346;2022-12-18T13:56:23;147042.03;;;-1.60;100.00
48976;BME280;34791;52.752;8.346;2022-12-18T13:59:15;147040.75;;;-1.61;100.00
48976;BME280;34791;52.752;8.346;2022-12-18T14:01:56;147036.94;;;-1.62;100.00
48976;BME280;34791;52.752;8.346;2022-12-18T14:04:23;147036.94;;;-1.62;100.00
48976;BME280;34791;52.752;8.346;2022-12-18T14:06:52;147039.47;;;-1.61;100.00
48976;BME280;34791;52.752;8.346;2022-12-18T14:09:23;147039.47;;;-1.61;100.00
48976;BME280;34791;52.752;8.346;2022-12-18T14:11:50;147038.19;;;-1.62;100.00
48976;BME280;34791;52.752;8.346;2022-12-18T14:14:17;147042.03;;;-1.60;100.00
48976;BME280;34791;52.752;8.346;2022-12-18T14:16:44;147042.03;;;-1.60;100.00